Time;durP1;ratioP1;P1;durP2;ratioP2;P2;SDS_P1;SDS_P2;PMS_P1;PMS_P2;Temp;Humidity;BMP_temperature;BMP_pressure;BME280_temperature;BME280_humidity;BME280_pressure;Samples;Min_cycle;Max_cycle;Signal;HPM_P1;HPM_P2
2021/06/26 00:01:11;;;;;;;18.50;9.15;;;14.90;99.90;;;;;;5017147;28;20054;-81
2021/06/26 00:03:41;;;;;;;17.30;8.70;;;14.90;99.90;;;;;;4989073;28;20057;-81
2021/06/26 00:06:11;;;;;;;15.25;8.02;;;15.00;99.90;;;;;;5020281;28;20232;-82
2021/06/26 00:08:39;;;;;;;14.88;8.07;;;15.10;99.90;;;;;;4986997;28;20046;-82
2021/06/26 00:11:07;;;;;;;14.20;8.05;;;15.20;99.90;;;;;;5002946;28;20061;-82
2021/06/26 00:13:36;;;;;;;16.52;9.00;;;15.20;99.90;;;;;;5022577;28;20061;-82
2021/06/26 00:16:05;;;;;;;14.80;8.90;;;15.30;99.90;;;;;;5004376;28;20060;-83
2021/06/26 00:18:36;;;;;;;14.30;7.73;;;15.30;99.90;;;;;;5005147;28;20054;-82
2021/06/26 00:21:04;;;;;;;12.23;7.53;;;15.40;99.90;;;;;;5005119;28;20295;-82
2021/06/26 00:23:38;;;;;;;15.20;7.73;;;15.50;99.90;;;;;;4998115;28;20383;-82
2021/06/26 00:26:16;;;;;;;;;;;15.50;99.90;;;;;;5004215;28;20384;-83
2021/06/26 00:28:47;;;;;;;;;;;15.60;99.90;;;;;;5017733;28;19921;-82
2021/06/26 00:31:16;;;;;;;16.27;8.75;;;15.70;99.90;;;;;;5020228;28;19929;-82
2021/06/26 00:33:45;;;;;;;15.30;8.20;;;15.90;99.90;;;;;;5002489;28;20065;-82
2021/06/26 00:36:14;;;;;;;13.57;7.97;;;15.70;99.90;;;;;;5021943;28;20057;-83
2021/06/26 00:38:43;;;;;;;12.55;7.63;;;15.70;99.90;;;;;;5001813;28;20045;-82
2021/06/26 00:41:12;;;;;;;13.43;7.28;;;15.80;99.90;;;;;;4999110;28;20061;-82
2021/06/26 00:43:40;;;;;;;13.20;7.25;;;15.70;99.90;;;;;;4982715;28;20050;-82
2021/06/26 00:46:09;;;;;;;16.30;9.02;;;15.70;99.90;;;;;;5015190;28;20046;-82
2021/06/26 00:48:39;;;;;;;20.40;9.70;;;15.70;99.90;;;;;;4998868;28;20052;-83
2021/06/26 00:51:08;;;;;;;18.13;10.25;;;15.80;99.90;;;;;;5016147;28;20061;-83
2021/06/26 00:53:38;;;;;;;20.92;11.55;;;15.80;99.90;;;;;;4996657;28;20057;-82
2021/06/26 00:56:09;;;;;;;23.23;10.43;;;15.90;99.90;;;;;;4997972;28;20061;-82
2021/06/26 00:58:40;;;;;;;15.55;8.70;;;15.90;99.90;;;;;;4981271;28;20073;-83
2021/06/26 01:01:12;;;;;;;15.63;9.00;;;15.90;99.90;;;;;;4994800;28;20061;-82
2021/06/26 01:03:42;;;;;;;18.67;9.20;;;16.00;99.90;;;;;;4980813;28;20050;-83
2021/06/26 01:06:18;;;;;;;14.02;8.07;;;15.90;99.90;;;;;;4978768;28;20058;-82
2021/06/26 01:08:46;;;;;;;18.85;9.20;;;16.00;99.90;;;;;;4986764;28;20146;-82
2021/06/26 01:11:21;;;;;;;13.57;7.43;;;16.00;99.90;;;;;;4995861;28;20061;-83
2021/06/26 01:13:50;;;;;;;22.58;9.30;;;17.40;99.90;;;;;;4979334;28;20050;-82
2021/06/26 01:16:18;;;;;;;16.15;8.98;;;16.00;99.90;;;;;;4978931;28;20055;-84
2021/06/26 01:18:48;;;;;;;16.67;8.45;;;16.00;99.90;;;;;;4980317;28;20054;-82
2021/06/26 01:21:21;;;;;;;16.83;8.73;;;16.00;99.90;;;;;;4964164;28;20058;-82
2021/06/26 01:23:54;;;;;;;19.58;11.88;;;16.00;99.90;;;;;;4997997;28;20058;-82
2021/06/26 01:26:28;;;;;;;16.30;9.88;;;16.00;99.90;;;;;;4979845;28;20084;-82
2021/06/26 01:28:57;;;;;;;15.93;9.68;;;16.00;99.90;;;;;;4979964;28;20065;-83
2021/06/26 01:31:29;;;;;;;18.40;9.93;;;15.90;99.90;;;;;;4982077;28;20073;-82
2021/06/26 01:33:57;;;;;;;19.52;10.13;;;16.00;99.90;;;;;;4986421;28;20051;-83
2021/06/26 01:36:27;;;;;;;19.98;9.05;;;15.90;99.90;;;;;;5019010;28;20054;-83
2021/06/26 01:38:59;;;;;;;19.65;10.52;;;15.90;99.90;;;;;;4999823;28;20064;-83
2021/06/26 01:41:32;;;;;;;21.40;10.55;;;15.90;99.90;;;;;;5016175;28;20061;-82
2021/06/26 01:44:01;;;;;;;15.82;9.35;;;15.80;99.90;;;;;;4982431;28;20049;-83
2021/06/26 01:46:33;;;;;;;17.63;8.13;;;15.90;99.90;;;;;;4999588;28;20054;-83
2021/06/26 01:49:12;;;;;;;17.25;9.00;;;16.00;99.90;;;;;;5018640;28;20046;-82
2021/06/26 01:51:41;;;;;;;22.33;9.93;;;15.90;99.90;;;;;;5018737;28;20521;-84
2021/06/26 01:54:13;;;;;;;21.70;8.88;;;15.90;99.90;;;;;;5018504;28;20038;-83
2021/06/26 01:56:51;;;;;;;22.70;9.90;;;16.00;99.90;;;;;;4986805;28;20053;-82
2021/06/26 01:59:20;;;;;;;16.60;8.93;;;15.90;99.90;;;;;;5016241;28;20050;-82
2021/06/26 02:01:49;;;;;;;18.35;9.85;;;16.00;99.90;;;;;;5021488;28;20061;-83
2021/06/26 02:04:18;;;;;;;18.00;10.02;;;16.00;99.90;;;;;;5017770;28;20080;-83
2021/06/26 02:06:48;;;;;;;18.88;8.85;;;16.00;99.90;;;;;;5018093;28;20753;-82
2021/06/26 02:09:18;;;;;;;;;;;16.40;99.90;;;;;;4983176;28;20046;-82
2021/06/26 02:11:52;;;;;;;19.48;9.57;;;16.70;99.90;;;;;;4998472;28;19921;-83
2021/06/26 02:14:20;;;;;;;19.85;10.45;;;16.10;99.90;;;;;;4988639;28;20417;-85
2021/06/26 02:16:48;;;;;;;17.77;8.85;;;16.10;99.90;;;;;;5024531;28;20053;-82
2021/06/26 02:19:16;;;;;;;19.88;10.23;;;16.10;99.90;;;;;;5008708;28;20065;-83
2021/06/26 02:21:48;;;;;;;22.27;9.95;;;16.10;99.90;;;;;;5013842;28;20057;-82
2021/06/26 02:24:17;;;;;;;19.40;10.40;;;16.10;99.90;;;;;;4998919;28;20057;-82
2021/06/26 02:26:45;;;;;;;21.02;10.63;;;16.20;99.90;;;;;;5030197;28;20065;-82
2021/06/26 02:29:13;;;;;;;29.75;11.60;;;16.20;99.90;;;;;;5006240;28;20061;-84
2021/06/26 02:31:42;;;;;;;18.35;10.50;;;16.20;99.90;;;;;;5009204;28;20062;-82
2021/06/26 02:34:22;;;;;;;21.23;11.48;;;16.20;99.90;;;;;;5004370;28;20058;-82
2021/06/26 02:36:52;;;;;;;20.13;10.65;;;16.20;99.90;;;;;;5003755;28;20061;-83
2021/06/26 02:39:23;;;;;;;21.48;11.75;;;16.20;99.90;;;;;;4999734;28;20053;-82
2021/06/26 02:42:17;;;;;;;23.73;12.68;;;16.20;99.90;;;;;;5004080;28;20052;-83
2021/06/26 02:44:53;;;;;;;21.33;11.93;;;16.20;99.90;;;;;;5004634;28;20046;-83
2021/06/26 02:47:22;;;;;;;23.55;14.23;;;16.20;99.90;;;;;;5012791;28;20049;-82
2021/06/26 02:49:51;;;;;;;18.67;10.10;;;16.30;99.90;;;;;;4997568;28;20046;-83
2021/06/26 02:52:20;;;;;;;24.67;11.57;;;16.20;99.90;;;;;;4980709;28;20069;-84
2021/06/26 02:54:49;;;;;;;22.15;12.65;;;15.50;99.90;;;;;;5003027;28;20058;-82
2021/06/26 02:57:17;;;;;;;22.25;13.05;;;16.30;99.90;;;;;;5004134;28;20065;-84
2021/06/26 02:59:51;;;;;;;20.73;12.73;;;16.30;99.90;;;;;;5023166;28;20053;-84
2021/06/26 03:02:19;;;;;;;25.48;13.63;;;16.30;99.90;;;;;;5013043;28;20054;-85
2021/06/26 03:04:47;;;;;;;22.50;12.48;;;16.30;99.90;;;;;;5007710;28;20049;-83
2021/06/26 03:07:15;;;;;;;20.98;9.93;;;16.30;99.90;;;;;;5007850;28;20060;-83
2021/06/26 03:09:45;;;;;;;18.88;10.90;;;16.30;99.90;;;;;;5006444;28;20599;-83
2021/06/26 03:12:14;;;;;;;22.52;12.75;;;16.30;99.90;;;;;;5003765;28;20588;-83
2021/06/26 03:14:43;;;;;;;23.27;12.30;;;16.30;99.90;;;;;;4987337;28;20061;-87
2021/06/26 03:17:11;;;;;;;21.27;11.25;;;16.20;99.90;;;;;;5002236;28;20065;-82
2021/06/26 03:19:39;;;;;;;17.23;10.90;;;16.20;99.90;;;;;;5020625;28;20057;-82
2021/06/26 03:22:07;;;;;;;20.60;10.65;;;16.20;99.90;;;;;;5002382;28;20076;-83
2021/06/26 03:24:36;;;;;;;25.50;12.85;;;16.20;99.90;;;;;;5003663;28;20054;-83
2021/06/26 03:27:06;;;;;;;25.13;12.23;;;16.20;99.90;;;;;;5001856;28;20050;-84
2021/06/26 03:29:35;;;;;;;18.60;10.98;;;16.20;99.90;;;;;;4985486;28;20417;-83
2021/06/26 03:32:04;;;;;;;25.90;12.80;;;16.20;99.90;;;;;;5031123;28;20057;-82
2021/06/26 03:34:34;;;;;;;20.30;11.82;;;16.10;99.90;;;;;;5018893;28;20050;-82
2021/06/26 03:37:02;;;;;;;23.65;12.50;;;16.20;99.90;;;;;;5019501;28;20046;-82
2021/06/26 03:39:34;;;;;;;21.23;11.23;;;16.10;99.90;;;;;;5002320;28;20050;-83
2021/06/26 03:42:03;;;;;;;19.98;10.40;;;16.10;99.90;;;;;;5018582;28;20054;-83
2021/06/26 03:44:35;;;;;;;24.45;13.05;;;16.00;99.90;;;;;;5001262;28;20371;-86
2021/06/26 03:47:03;;;;;;;23.75;11.88;;;16.00;99.90;;;;;;5019553;28;20061;-83
2021/06/26 03:49:35;;;;;;;18.42;11.20;;;16.00;99.90;;;;;;5002455;28;20050;-82
2021/06/26 03:52:05;;;;;;;19.52;10.80;;;15.90;99.90;;;;;;5019056;28;20053;-82
2021/06/26 03:54:34;;;;;;;18.98;10.43;;;15.90;99.90;;;;;;4981214;28;20062;-84
2021/06/26 03:57:02;;;;;;;19.73;11.75;;;15.90;99.90;;;;;;4993741;28;20050;-83
2021/06/26 03:59:31;;;;;;;20.45;10.35;;;15.90;99.90;;;;;;4980817;28;20046;-83
2021/06/26 04:02:00;;;;;;;22.50;10.32;;;15.90;99.90;;;;;;4995057;28;20555;-82
2021/06/26 04:04:29;;;;;;;21.88;10.60;;;15.90;99.90;;;;;;5018703;28;20096;-84
2021/06/26 04:06:57;;;;;;;22.00;10.55;;;15.90;99.90;;;;;;5017771;28;20066;-83
2021/06/26 04:09:25;;;;;;;19.92;11.18;;;15.90;99.90;;;;;;5001586;28;20050;-83
2021/06/26 04:11:55;;;;;;;22.73;12.35;;;15.90;99.90;;;;;;5019046;28;20053;-84
2021/06/26 04:14:24;;;;;;;24.52;12.98;;;15.90;99.90;;;;;;5002602;28;20050;-85
2021/06/26 04:16:54;;;;;;;23.42;12.73;;;15.70;99.90;;;;;;5022358;28;20050;-81
2021/06/26 04:19:23;;;;;;;24.90;13.98;;;15.90;99.90;;;;;;5021553;28;20065;-83
2021/06/26 04:21:53;;;;;;;22.63;12.48;;;15.90;99.90;;;;;;5019661;28;20054;-86
2021/06/26 04:24:24;;;;;;;28.75;12.40;;;15.90;99.90;;;;;;5019659;28;20054;-82
2021/06/26 04:26:53;;;;;;;27.13;11.73;;;15.90;99.90;;;;;;5002383;28;20050;-83
2021/06/26 04:29:24;;;;;;;23.52;12.70;;;15.90;99.90;;;;;;5000024;28;20049;-84
2021/06/26 04:31:56;;;;;;;24.75;12.70;;;15.90;99.90;;;;;;5011441;28;20057;-85
2021/06/26 04:34:26;;;;;;;29.50;14.15;;;15.90;99.90;;;;;;5016801;28;20053;-83
2021/06/26 04:36:54;;;;;;;23.40;12.52;;;15.90;99.90;;;;;;5007927;28;20056;-88
2021/06/26 04:39:22;;;;;;;24.05;12.65;;;15.80;99.90;;;;;;5026642;28;20053;-85
2021/06/26 04:41:55;;;;;;;36.15;15.00;;;15.80;99.90;;;;;;4992234;28;20053;-83
2021/06/26 04:44:24;;;;;;;32.38;16.83;;;15.70;99.90;;;;;;5027578;28;20049;-83
2021/06/26 04:46:52;;;;;;;28.15;14.25;;;15.70;99.90;;;;;;5025856;28;20054;-82
2021/06/26 04:49:21;;;;;;;33.05;15.50;;;15.60;99.90;;;;;;4984380;28;20057;-82
2021/06/26 04:51:49;;;;;;;32.95;18.05;;;15.60;99.90;;;;;;5015804;28;20064;-84
2021/06/26 04:54:20;;;;;;;36.83;18.60;;;15.40;99.90;;;;;;5000703;28;20061;-82
2021/06/26 04:56:51;;;;;;;37.40;17.88;;;15.50;99.90;;;;;;5016332;28;20058;-84
2021/06/26 04:59:20;;;;;;;31.13;15.50;;;15.40;99.90;;;;;;4983206;28;20061;-83
2021/06/26 05:01:51;;;;;;;31.25;16.30;;;15.40;99.90;;;;;;5002679;28;20046;-84
2021/06/26 05:04:21;;;;;;;38.05;17.95;;;15.30;99.90;;;;;;4983793;28;20058;-82
2021/06/26 05:06:52;;;;;;;34.35;17.50;;;15.30;99.90;;;;;;5033645;28;20053;-83
2021/06/26 05:09:20;;;;;;;33.30;17.77;;;15.30;99.90;;;;;;5035774;28;20053;-84
2021/06/26 05:11:48;;;;;;;32.88;16.80;;;15.30;99.90;;;;;;5017472;28;20053;-83
2021/06/26 05:14:16;;;;;;;36.55;19.02;;;15.40;99.90;;;;;;4984250;28;20058;-82
2021/06/26 05:16:47;;;;;;;33.95;17.48;;;15.20;99.90;;;;;;5001203;28;20046;-82
2021/06/26 05:19:15;;;;;;;40.42;19.85;;;15.20;99.90;;;;;;5017333;28;20054;-84
2021/06/26 05:21:45;;;;;;;37.78;19.35;;;15.20;99.90;;;;;;5012114;28;20054;-86
2021/06/26 05:24:18;;;;;;;34.67;18.10;;;15.20;99.90;;;;;;4995030;28;20061;-81
2021/06/26 05:26:46;;;;;;;39.90;21.10;;;15.20;99.90;;;;;;4995327;28;20058;-85
2021/06/26 05:29:16;;;;;;;30.60;16.65;;;15.30;99.90;;;;;;5012559;28;20054;-82
2021/06/26 05:31:44;;;;;;;35.90;18.25;;;15.30;99.90;;;;;;5015981;28;20053;-83
2021/06/26 05:34:12;;;;;;;34.80;18.60;;;15.30;99.90;;;;;;5013557;28;20050;-83
2021/06/26 05:36:42;;;;;;;38.03;19.45;;;15.40;99.90;;;;;;5011697;28;20060;-83
2021/06/26 05:39:09;;;;;;;34.60;20.65;;;15.40;99.90;;;;;;4996655;28;20061;-82
2021/06/26 05:41:39;;;;;;;37.78;19.20;;;15.40;99.90;;;;;;5014436;28;20065;-84
2021/06/26 05:44:08;;;;;;;39.88;20.55;;;15.40;99.90;;;;;;4997080;28;20053;-83
2021/06/26 05:46:37;;;;;;;41.58;19.45;;;15.40;99.90;;;;;;4947577;28;20046;-82
2021/06/26 05:49:07;;;;;;;39.22;20.27;;;15.50;99.90;;;;;;4994323;28;20053;-82
2021/06/26 05:51:39;;;;;;;31.25;18.77;;;15.50;99.90;;;;;;4978355;28;20386;-82
2021/06/26 05:54:07;;;;;;;42.05;18.88;;;15.60;99.90;;;;;;5011362;28;20046;-82
2021/06/26 05:56:39;;;;;;;34.83;20.15;;;15.70;99.90;;;;;;5011452;28;20050;-83
2021/06/26 05:59:07;;;;;;;35.15;19.30;;;15.70;99.90;;;;;;4996656;28;20058;-82
2021/06/26 06:01:38;;;;;;;37.70;20.08;;;15.80;99.90;;;;;;5007371;28;20038;-83
2021/06/26 06:04:09;;;;;;;33.90;18.58;;;15.80;99.90;;;;;;5020002;28;20576;-83
2021/06/26 06:06:38;;;;;;;33.35;18.70;;;15.90;99.90;;;;;;4980284;28;20058;-83
2021/06/26 06:09:07;;;;;;;36.15;21.02;;;15.90;99.90;;;;;;4997410;28;20049;-82
2021/06/26 06:11:39;;;;;;;35.05;18.83;;;15.90;99.90;;;;;;4992490;28;20922;-83
2021/06/26 06:14:10;;;;;;;;;;;16.00;99.90;;;;;;4962778;28;20058;-82
2021/06/26 06:16:40;;;;;;;35.28;18.30;;;16.00;99.90;;;;;;4977268;28;20550;-82
2021/06/26 06:19:11;;;;;;;30.55;16.52;;;16.00;99.90;;;;;;4993317;28;20062;-83
2021/06/26 06:21:40;;;;;;;33.55;17.67;;;16.10;99.90;;;;;;4977727;28;20418;-83
2021/06/26 06:24:09;;;;;;;36.22;17.02;;;16.10;99.90;;;;;;4995846;28;20497;-83
2021/06/26 06:26:41;;;;;;;30.38;16.48;;;16.10;99.90;;;;;;4978128;28;20042;-82
2021/06/26 06:29:09;;;;;;;33.95;17.45;;;16.10;99.90;;;;;;4995086;28;20054;-82
2021/06/26 06:31:37;;;;;;;27.65;16.85;;;16.20;99.90;;;;;;4998702;28;20057;-82
2021/06/26 06:34:09;;;;;;;33.33;19.35;;;16.20;99.90;;;;;;5018934;28;20061;-82
2021/06/26 06:36:37;;;;;;;31.23;17.30;;;16.30;99.90;;;;;;5023953;28;20045;-86
2021/06/26 06:39:06;;;;;;;30.05;16.25;;;16.30;99.90;;;;;;5021208;28;20045;-84
2021/06/26 06:41:35;;;;;;;31.40;16.67;;;16.10;99.90;;;;;;5022145;28;20453;-83
2021/06/26 06:44:04;;;;;;;38.17;17.67;;;16.40;99.90;;;;;;5037498;28;20061;-83
2021/06/26 06:46:32;;;;;;;35.42;19.63;;;16.40;99.90;;;;;;5019917;28;20065;-82
2021/06/26 06:49:05;;;;;;;29.35;17.60;;;16.50;99.90;;;;;;5037147;28;20049;-82
2021/06/26 06:51:36;;;;;;;36.22;18.17;;;16.60;99.90;;;;;;5002964;28;20049;-82
2021/06/26 06:54:07;;;;;;;28.27;16.67;;;16.60;99.90;;;;;;5031592;28;20064;-82
2021/06/26 06:56:36;;;;;;;30.50;15.95;;;16.70;99.90;;;;;;4999582;28;20054;-82
2021/06/26 06:59:04;;;;;;;30.08;15.68;;;16.70;99.90;;;;;;4998362;28;20057;-83
2021/06/26 07:01:32;;;;;;;29.08;16.50;;;16.80;99.90;;;;;;4986787;28;20073;-82
2021/06/26 07:04:04;;;;;;;26.27;15.57;;;16.90;99.90;;;;;;4967362;28;20061;-85
2021/06/26 07:06:34;;;;;;;26.90;15.43;;;17.00;99.90;;;;;;4996454;28;20053;-82
2021/06/26 07:09:04;;;;;;;28.17;15.07;;;17.00;99.90;;;;;;4968607;28;20049;-82
2021/06/26 07:11:33;;;;;;;25.80;16.02;;;17.10;99.90;;;;;;4999792;28;20038;-82
2021/06/26 07:14:01;;;;;;;29.38;16.90;;;17.20;99.90;;;;;;4993562;28;20061;-82
2021/06/26 07:16:29;;;;;;;29.70;15.38;;;17.40;99.90;;;;;;4991308;28;20050;-82
2021/06/26 07:19:10;;;;;;;;;;;17.50;99.90;;;;;;5018559;28;20054;-82
2021/06/26 07:21:39;;;;;;;27.00;12.68;;;17.60;99.90;;;;;;4994119;28;19925;-83
2021/06/26 07:24:09;;;;;;;26.05;13.15;;;17.70;99.90;;;;;;5023834;28;20057;-83
2021/06/26 07:26:40;;;;;;;25.88;13.38;;;17.90;99.90;;;;;;5004941;28;20225;-82
2021/06/26 07:29:23;;;;;;;23.63;13.05;;;18.10;99.90;;;;;;5024967;28;20482;-83
2021/06/26 07:31:51;;;;;;;23.77;11.95;;;18.20;99.90;;;;;;5027764;28;20650;-85
2021/06/26 07:34:28;;;;;;;24.48;12.98;;;18.40;99.90;;;;;;5022397;28;20370;-82
2021/06/26 07:37:00;;;;;;;24.52;13.07;;;18.40;99.90;;;;;;4990028;28;20058;-83
2021/06/26 07:39:31;;;;;;;27.10;12.88;;;18.50;99.90;;;;;;4982714;28;20069;-81
2021/06/26 07:41:59;;;;;;;22.55;14.00;;;18.60;99.90;;;;;;4987432;28;20046;-83
2021/06/26 07:44:29;;;;;;;24.48;13.63;;;18.70;99.90;;;;;;4961226;28;20072;-82
2021/06/26 07:46:57;;;;;;;22.95;12.27;;;18.80;99.90;;;;;;4988027;28;20058;-83
2021/06/26 07:49:25;;;;;;;21.00;11.15;;;18.80;99.90;;;;;;4988656;28;20065;-85
2021/06/26 07:52:07;;;;;;;23.13;11.63;;;18.90;99.90;;;;;;5001897;28;20045;-82
2021/06/26 07:54:48;;;;;;;21.70;11.48;;;18.90;99.90;;;;;;5008299;28;20062;-85
2021/06/26 07:57:46;;;;;;;25.38;12.57;;;19.00;99.90;;;;;;5012742;28;20065;-82
2021/06/26 08:00:56;;;;;;;20.77;11.63;;;19.10;99.90;;;;;;4985149;28;20058;-83
2021/06/26 08:03:28;;;;;;;24.05;11.85;;;19.10;99.90;;;;;;4994251;28;20053;-83
2021/06/26 08:05:58;;;;;;;21.85;12.63;;;19.10;99.90;;;;;;4996017;28;20060;-84
2021/06/26 08:08:28;;;;;;;20.60;10.70;;;19.20;99.90;;;;;;5015052;28;20056;-83
2021/06/26 08:10:57;;;;;;;18.98;10.60;;;19.20;99.90;;;;;;5021155;28;20060;-81
2021/06/26 08:13:26;;;;;;;20.33;10.57;;;19.20;99.90;;;;;;4994413;28;20440;-82
2021/06/26 08:15:56;;;;;;;23.00;10.27;;;19.20;99.90;;;;;;5009684;28;20417;-82
2021/06/26 08:18:24;;;;;;;23.35;11.23;;;19.20;99.90;;;;;;5001056;28;20058;-82
2021/06/26 08:20:52;;;;;;;23.63;12.38;;;19.20;99.90;;;;;;5012966;28;20061;-82
2021/06/26 08:23:21;;;;;;;19.55;10.40;;;19.20;99.90;;;;;;4996161;28;20392;-83
2021/06/26 08:25:49;;;;;;;23.35;12.63;;;19.20;99.90;;;;;;4968460;28;20046;-83
2021/06/26 08:28:20;;;;;;;20.98;9.45;;;19.30;99.90;;;;;;4974758;28;20054;-83
2021/06/26 08:30:50;;;;;;;16.77;8.85;;;19.40;99.90;;;;;;4988535;28;20835;-82
2021/06/26 08:33:18;;;;;;;17.95;8.77;;;19.60;99.90;;;;;;4970061;28;20491;-82
2021/06/26 08:35:49;;;;;;;19.50;9.95;;;19.80;99.90;;;;;;4985563;28;20050;-81
2021/06/26 08:38:16;;;;;;;14.85;8.00;;;20.00;99.90;;;;;;4995296;28;20057;-83
2021/06/26 08:40:46;;;;;;;17.38;8.20;;;20.70;99.90;;;;;;4999355;28;20054;-85
2021/06/26 08:43:16;;;;;;;15.40;7.10;;;20.30;99.90;;;;;;5003838;28;20042;-82
2021/06/26 08:45:44;;;;;;;16.67;8.88;;;20.50;99.90;;;;;;4996976;28;20038;-82
2021/06/26 08:48:13;;;;;;;20.80;8.77;;;19.40;99.90;;;;;;5009842;28;20064;-81
2021/06/26 08:50:42;;;;;;;18.75;9.07;;;20.70;99.90;;;;;;4976267;28;20062;-82
2021/06/26 08:53:11;;;;;;;18.52;9.38;;;20.80;99.90;;;;;;5005299;28;20804;-83
2021/06/26 08:55:42;;;;;;;22.17;10.10;;;20.90;99.90;;;;;;4981618;28;20060;-84
2021/06/26 08:58:12;;;;;;;14.80;8.20;;;21.00;99.90;;;;;;4988628;28;20422;-82
2021/06/26 09:00:40;;;;;;;19.63;9.85;;;21.00;99.90;;;;;;4990494;28;20061;-82
2021/06/26 09:03:13;;;;;;;20.08;9.75;;;21.10;99.90;;;;;;4982222;28;20053;-82
2021/06/26 09:05:43;;;;;;;17.20;8.48;;;21.10;99.90;;;;;;5000368;28;20060;-81
2021/06/26 09:08:11;;;;;;;17.13;9.27;;;21.20;99.90;;;;;;4983481;28;20533;-82
2021/06/26 09:10:44;;;;;;;21.30;11.48;;;21.20;99.90;;;;;;4996243;28;20054;-83
2021/06/26 09:13:26;;;;;;;21.80;9.43;;;21.20;99.90;;;;;;4975413;28;20050;-82
2021/06/26 09:16:03;;;;;;;21.40;9.77;;;21.30;99.90;;;;;;4960703;28;20058;-83
2021/06/26 09:18:42;;;;;;;17.98;9.48;;;21.20;99.90;;;;;;5000644;28;20065;-82
2021/06/26 09:21:34;;;;;;;20.55;10.52;;;21.10;99.90;;;;;;4994881;28;20050;-82
2021/06/26 09:24:09;;;;;;;23.38;10.88;;;21.10;99.90;;;;;;4966420;28;20054;-81
2021/06/26 09:27:00;;;;;;;21.25;8.90;;;21.10;99.90;;;;;;4969824;28;20050;-83
2021/06/26 09:29:33;;;;;;;30.50;11.63;;;20.00;99.90;;;;;;5002713;28;20053;-82
2021/06/26 09:32:03;;;;;;;12.80;5.60;;;21.20;99.90;;;;;;4969831;28;20072;-83
2021/06/26 09:34:39;;;;;;;19.33;5.82;;;21.30;99.90;;;;;;4986234;28;20514;-83
2021/06/26 09:37:10;;;;;;;8.13;3.72;;;21.30;99.90;;;;;;5010422;28;20053;-82
2021/06/26 09:39:41;;;;;;;10.02;4.18;;;21.80;99.90;;;;;;5006692;28;20057;-81
2021/06/26 09:42:31;;;;;;;14.00;4.43;;;21.50;99.90;;;;;;4978020;28;20043;-82
2021/06/26 09:45:01;;;;;;;8.05;3.70;;;21.50;99.90;;;;;;4982070;28;20061;-84
2021/06/26 09:47:32;;;;;;;9.70;3.75;;;21.50;99.90;;;;;;4979927;28;20050;-83
2021/06/26 09:50:19;;;;;;;7.13;2.70;;;21.60;99.90;;;;;;5008169;28;20061;-82
2021/06/26 09:52:56;;;;;;;6.00;3.28;;;21.60;99.50;;;;;;5002277;28;20535;-83
2021/06/26 09:55:38;;;;;;;25.05;6.32;;;21.70;99.90;;;;;;4964596;28;20756;-81
2021/06/26 09:58:15;;;;;;;7.90;4.10;;;21.80;99.70;;;;;;4957540;28;20046;-83
2021/06/26 10:00:45;;;;;;;6.78;2.47;;;22.00;99.50;;;;;;4997177;28;20053;-82
2021/06/26 10:03:17;;;;;;;8.07;2.65;;;22.00;98.60;;;;;;4996026;28;20054;-82
2021/06/26 10:05:47;;;;;;;8.10;3.20;;;22.00;97.50;;;;;;4992166;28;20061;-83
2021/06/26 10:08:16;;;;;;;5.95;2.90;;;22.00;97.50;;;;;;4973734;28;20521;-81
2021/06/26 10:10:44;;;;;;;4.55;2.67;;;22.00;97.50;;;;;;4979799;28;20051;-83
2021/06/26 10:13:13;;;;;;;8.57;2.85;;;22.00;97.50;;;;;;4983201;28;20065;-82
2021/06/26 10:15:42;;;;;;;12.00;3.20;;;22.10;97.60;;;;;;4982822;28;20061;-83
2021/06/26 10:18:13;;;;;;;5.28;2.35;;;22.10;96.40;;;;;;4980218;28;20066;-81
2021/06/26 10:20:41;;;;;;;9.55;4.13;;;22.20;96.90;;;;;;4972130;28;20055;-83
2021/06/26 10:23:11;;;;;;;7.22;2.67;;;22.30;96.90;;;;;;4960795;28;20054;-85
2021/06/26 10:25:40;;;;;;;6.93;3.23;;;22.00;96.60;;;;;;4972367;28;20496;-84
2021/06/26 10:28:16;;;;;;;11.00;3.63;;;22.40;96.40;;;;;;4972429;28;20312;-83
2021/06/26 10:31:11;;;;;;;14.80;4.35;;;22.50;95.40;;;;;;4973074;28;20054;-85
2021/06/26 10:33:40;;;;;;;8.93;2.80;;;22.40;94.80;;;;;;4975135;28;20058;-82
2021/06/26 10:36:13;;;;;;;10.13;3.67;;;22.40;95.70;;;;;;4979108;28;20051;-82
2021/06/26 10:38:45;;;;;;;4.18;1.83;;;22.40;95.00;;;;;;4972100;28;20434;-84
2021/06/26 10:41:21;;;;;;;4.07;1.90;;;22.30;94.10;;;;;;4974467;28;20047;-81
2021/06/26 10:43:54;;;;;;;4.78;1.77;;;22.30;94.00;;;;;;4973685;28;20054;-82
2021/06/26 10:46:23;;;;;;;4.95;2.00;;;22.30;92.50;;;;;;4972578;28;20070;-82
2021/06/26 10:49:05;;;;;;;5.47;2.20;;;22.40;92.90;;;;;;4977223;28;20055;-85
2021/06/26 10:51:36;;;;;;;6.43;2.17;;;22.40;91.90;;;;;;4964500;28;20050;-83
2021/06/26 10:54:22;;;;;;;3.50;1.45;;;22.50;92.00;;;;;;4978774;28;20524;-85
2021/06/26 10:57:05;;;;;;;5.70;1.67;;;22.60;88.70;;;;;;4986217;28;20046;-83
2021/06/26 10:59:33;;;;;;;8.05;2.28;;;22.70;90.00;;;;;;4980903;28;20058;-83
2021/06/26 11:02:04;;;;;;;5.20;1.55;;;22.80;90.80;;;;;;4980630;28;20051;-83
2021/06/26 11:04:33;;;;;;;2.17;1.20;;;23.00;90.00;;;;;;4983238;28;20062;-82
2021/06/26 11:07:11;;;;;;;3.45;1.80;;;23.20;86.30;;;;;;4968563;28;20066;-82
2021/06/26 11:09:40;;;;;;;3.90;1.10;;;23.30;82.40;;;;;;4963583;28;20495;-85
2021/06/26 11:12:14;;;;;;;1.05;0.98;;;23.30;84.80;;;;;;4955891;28;20047;-83
2021/06/26 11:14:53;;;;;;;3.78;2.17;;;23.30;84.50;;;;;;4955526;28;20055;-82
2021/06/26 11:17:43;;;;;;;4.30;1.77;;;23.30;82.50;;;;;;4963055;28;20064;-82
2021/06/26 11:20:18;;;;;;;3.13;0.90;;;23.40;80.20;;;;;;4950232;28;20054;-83
2021/06/26 11:22:56;;;;;;;8.45;1.38;;;23.20;79.20;;;;;;4933970;28;20042;-84
2021/06/26 11:25:32;;;;;;;2.90;1.20;;;23.50;79.70;;;;;;4966803;28;20055;-82
2021/06/26 11:28:13;;;;;;;1.98;1.27;;;23.80;80.60;;;;;;4964180;28;20058;-82
2021/06/26 11:30:46;;;;;;;3.47;1.40;;;23.90;80.70;;;;;;4978028;28;20054;-83
2021/06/26 11:33:14;;;;;;;3.58;1.17;;;24.00;79.40;;;;;;4976043;28;20058;-83
2021/06/26 11:35:44;;;;;;;4.93;1.60;;;24.10;80.90;;;;;;4969435;28;20063;-81
2021/06/26 11:38:18;;;;;;;2.80;1.35;;;24.30;80.50;;;;;;4971127;28;20066;-84
2021/06/26 11:40:46;;;;;;;3.85;1.42;;;24.50;80.40;;;;;;4965117;28;20875;-82
2021/06/26 11:43:18;;;;;;;55.28;15.48;;;24.70;78.80;;;;;;4962223;28;20070;-81
2021/06/26 11:45:47;;;;;;;41.13;11.25;;;24.70;76.90;;;;;;4967751;28;20058;-82
2021/06/26 11:48:18;;;;;;;3.83;1.55;;;24.70;78.40;;;;;;4958238;28;20047;-82
2021/06/26 11:50:53;;;;;;;7.28;2.63;;;24.80;79.20;;;;;;4962335;28;20047;-81
2021/06/26 11:53:25;;;;;;;4.15;1.42;;;24.80;79.20;;;;;;4963791;28;20505;-82
2021/06/26 11:56:01;;;;;;;2.53;1.13;;;25.00;80.30;;;;;;4966103;28;20054;-83
2021/06/26 11:58:35;;;;;;;1.50;1.15;;;25.10;80.00;;;;;;4958161;28;20051;-82
2021/06/26 12:01:08;;;;;;;1.02;0.63;;;25.30;78.80;;;;;;4972489;28;20050;-83
2021/06/26 12:03:38;;;;;;;2.45;1.38;;;25.40;75.80;;;;;;4958804;28;20530;-82
2021/06/26 12:06:15;;;;;;;2.00;1.25;;;25.60;77.40;;;;;;4967384;28;20050;-81
2021/06/26 12:08:55;;;;;;;1.70;0.98;;;25.60;74.10;;;;;;4958952;28;20046;-82
2021/06/26 12:11:35;;;;;;;1.42;1.00;;;25.70;74.40;;;;;;4974423;28;20073;-81
2021/06/26 12:14:04;;;;;;;2.63;1.27;;;27.30;77.40;;;;;;4989005;28;20746;-83
2021/06/26 12:16:37;;;;;;;7.65;2.10;;;25.70;77.40;;;;;;4998202;28;20057;-87
2021/06/26 12:19:10;;;;;;;3.47;0.98;;;24.80;77.10;;;;;;4948272;28;20670;-82
2021/06/26 12:21:44;;;;;;;2.67;1.17;;;25.80;76.30;;;;;;4975333;28;20053;-81
2021/06/26 12:24:26;;;;;;;3.63;0.90;;;25.80;74.80;;;;;;4982089;28;20054;-84
2021/06/26 12:27:23;;;;;;;3.42;1.83;;;25.80;74.10;;;;;;4992076;28;20054;-84
2021/06/26 12:29:56;;;;;;;4.05;1.60;;;25.70;75.00;;;;;;4974143;28;20117;-83
2021/06/26 12:32:33;;;;;;;2.72;1.50;;;25.50;76.80;;;;;;4984985;28;20061;-83
2021/06/26 12:35:05;;;;;;;2.35;1.20;;;25.50;77.90;;;;;;4976791;28;20049;-83
2021/06/26 12:37:38;;;;;;;1.38;1.08;;;25.60;75.30;;;;;;4977156;28;20053;-84
2021/06/26 12:40:09;;;;;;;4.35;1.83;;;25.50;75.80;;;;;;4995108;28;20085;-82
2021/06/26 12:42:55;;;;;;;2.47;1.35;;;25.60;76.50;;;;;;4980467;28;20348;-85
2021/06/26 12:45:30;;;;;;;2.92;1.42;;;25.50;76.80;;;;;;4989227;28;20587;-83
2021/06/26 12:48:13;;;;;;;8.35;1.90;;;25.50;77.80;;;;;;4963465;28;20054;-84
2021/06/26 12:51:11;;;;;;;3.10;1.15;;;25.50;78.50;;;;;;4996016;28;20069;-84
2021/06/26 12:53:44;;;;;;;4.80;1.05;;;25.60;77.40;;;;;;4997685;28;20603;-83
2021/06/26 12:56:18;;;;;;;2.22;1.33;;;25.60;76.70;;;;;;4998731;28;20061;-82
2021/06/26 12:58:54;;;;;;;4.50;1.85;;;25.60;78.40;;;;;;4983450;28;20466;-82